CES5408 ZSJN-ZSHC
Flight info
| Callsign | CES5408 |
|---|---|
| Flight time | 1h 9m |
| Altitude | 35100 |
| Route | ABTUB7Y ABTUB A593 DPX A470 OF W95 SAPIN A470 IGRAT IGRAT91 |
| Aircraft | B77W/H-SDE1E2E3FGHIJ2J3J4J5M1RWXY/LB1D1 |
Departure
| Time | 2026-04-23 12:40 |
|---|---|
| Airport | Jinan Yaoqiang International Airport (ZSJN) |
Arrival
| Time | 2026-04-23 13:49 |
|---|---|
| Airport | Hangzhou Xiaoshan International Airport (ZSHC) |
| Time | Latitude | Longitude | Altitude | Speed | Heading |
|---|---|---|---|---|---|
| 2026-04-23 12:17 | 36.85501 | 117.21156 | 91 ft | 0 kts | 290° |
| 2026-04-23 12:30 | 36.85500 | 117.21158 | 91 ft | 1 kts | 290° |
| 2026-04-23 12:30 | 36.85495 | 117.21175 | 91 ft | 2 kts | 290° |
| 2026-04-23 12:31 | 36.85490 | 117.21192 | 91 ft | 2 kts | 290° |
| 2026-04-23 12:31 | 36.85485 | 117.21210 | 91 ft | 2 kts | 290° |
| 2026-04-23 12:31 | 36.85480 | 117.21228 | 91 ft | 2 kts | 294° |
| 2026-04-23 12:31 | 36.85472 | 117.21243 | 91 ft | 2 kts | 312° |
| 2026-04-23 12:32 | 36.85461 | 117.21255 | 91 ft | 2 kts | 326° |
| 2026-04-23 12:32 | 36.85448 | 117.21265 | 91 ft | 2 kts | 340° |
| 2026-04-23 12:32 | 36.85434 | 117.21269 | 91 ft | 2 kts | 353° |
| 2026-04-23 12:32 | 36.85419 | 117.21270 | 91 ft | 2 kts | 2° |
| 2026-04-23 12:33 | 36.85404 | 117.21269 | 91 ft | 2 kts | 1° |
| 2026-04-23 12:33 | 36.85389 | 117.21269 | 91 ft | 1 kts | 359° |
| 2026-04-23 12:33 | 36.85386 | 117.21269 | 91 ft | 0 kts | 359° |
| 2026-04-23 12:35 | 36.85399 | 117.21269 | 90 ft | 4 kts | 360° |
| 2026-04-23 12:35 | 36.85445 | 117.21275 | 90 ft | 7 kts | 26° |
| 2026-04-23 12:35 | 36.85465 | 117.21330 | 90 ft | 7 kts | 79° |
| 2026-04-23 12:36 | 36.85506 | 117.21367 | 91 ft | 10 kts | 9° |
| 2026-04-23 12:36 | 36.85597 | 117.21370 | 90 ft | 15 kts | 0° |
| 2026-04-23 12:36 | 36.85723 | 117.21371 | 90 ft | 20 kts | 0° |
| 2026-04-23 12:36 | 36.85876 | 117.21371 | 91 ft | 24 kts | 360° |
| 2026-04-23 12:37 | 36.86060 | 117.21371 | 91 ft | 28 kts | 360° |
| 2026-04-23 12:37 | 36.86267 | 117.21371 | 91 ft | 30 kts | 360° |
| 2026-04-23 12:37 | 36.86476 | 117.21372 | 90 ft | 29 kts | 360° |
| 2026-04-23 12:37 | 36.86672 | 117.21372 | 91 ft | 27 kts | 360° |
| 2026-04-23 12:38 | 36.86857 | 117.21372 | 91 ft | 25 kts | 360° |
| 2026-04-23 12:38 | 36.87030 | 117.21372 | 90 ft | 24 kts | 360° |
| 2026-04-23 12:38 | 36.87193 | 117.21373 | 91 ft | 22 kts | 0° |
| 2026-04-23 12:38 | 36.87292 | 117.21373 | 90 ft | 9 kts | 360° |
| 2026-04-23 12:39 | 36.87336 | 117.21417 | 90 ft | 10 kts | 76° |
| 2026-04-23 12:39 | 36.87339 | 117.21512 | 90 ft | 11 kts | 92° |
| 2026-04-23 12:39 | 36.87305 | 117.21593 | 91 ft | 11 kts | 161° |
| 2026-04-23 12:39 | 36.87207 | 117.21599 | 90 ft | 22 kts | 180° |
| 2026-04-23 12:40 | 36.86818 | 117.21596 | 90 ft | 91 kts | 180° |
| 2026-04-23 12:40 | 36.85963 | 117.21596 | 91 ft | 153 kts | 180° |
| 2026-04-23 12:40 | 36.84806 | 117.21597 | 558 ft | 167 kts | 181° |
| 2026-04-23 12:40 | 36.83629 | 117.21607 | 1226 ft | 174 kts | 182° |
| 2026-04-23 12:41 | 36.82391 | 117.21609 | 1671 ft | 186 kts | 182° |
| 2026-04-23 12:41 | 36.81045 | 117.21609 | 2065 ft | 202 kts | 182° |
| 2026-04-23 12:41 | 36.79561 | 117.21598 | 2497 ft | 220 kts | 182° |
| 2026-04-23 12:41 | 36.77985 | 117.21584 | 2964 ft | 237 kts | 181° |
| 2026-04-23 12:42 | 36.76275 | 117.21569 | 3519 ft | 250 kts | 181° |
| 2026-04-23 12:42 | 36.74535 | 117.21555 | 4249 ft | 255 kts | 181° |
| 2026-04-23 12:42 | 36.72739 | 117.21542 | 4990 ft | 259 kts | 179° |
| 2026-04-23 12:42 | 36.70948 | 117.21786 | 5667 ft | 264 kts | 171° |
| 2026-04-23 12:43 | 36.69130 | 117.22166 | 6381 ft | 268 kts | 170° |
| 2026-04-23 12:43 | 36.67289 | 117.22559 | 7010 ft | 275 kts | 170° |
| 2026-04-23 12:43 | 36.65370 | 117.22968 | 7660 ft | 280 kts | 170° |
| 2026-04-23 12:43 | 36.63437 | 117.23380 | 8306 ft | 285 kts | 170° |
| 2026-04-23 12:44 | 36.61494 | 117.23795 | 8967 ft | 289 kts | 170° |
| 2026-04-23 12:44 | 36.59486 | 117.24222 | 9568 ft | 295 kts | 169° |
| 2026-04-23 12:44 | 36.57473 | 117.24651 | 10216 ft | 298 kts | 169° |
| 2026-04-23 12:44 | 36.55372 | 117.25098 | 10572 ft | 314 kts | 169° |
| 2026-04-23 12:45 | 36.53171 | 117.25566 | 10896 ft | 330 kts | 169° |
| 2026-04-23 12:45 | 36.50832 | 117.26064 | 11235 ft | 346 kts | 169° |
| 2026-04-23 12:45 | 36.48434 | 117.26575 | 11612 ft | 361 kts | 169° |
| 2026-04-23 12:45 | 36.45902 | 117.27113 | 11990 ft | 377 kts | 169° |
| 2026-04-23 12:46 | 36.43278 | 117.27669 | 12481 ft | 389 kts | 169° |
| 2026-04-23 12:46 | 36.40583 | 117.28240 | 13279 ft | 393 kts | 169° |
| 2026-04-23 12:46 | 36.37867 | 117.28815 | 14133 ft | 397 kts | 169° |
| 2026-04-23 12:46 | 36.35131 | 117.29394 | 14898 ft | 404 kts | 169° |
| 2026-04-23 12:47 | 36.32359 | 117.29981 | 15672 ft | 412 kts | 169° |
| 2026-04-23 12:47 | 36.29514 | 117.30582 | 16519 ft | 417 kts | 169° |
| 2026-04-23 12:47 | 36.26660 | 117.31184 | 17349 ft | 422 kts | 170° |
| 2026-04-23 12:47 | 36.23745 | 117.31799 | 18119 ft | 428 kts | 170° |
| 2026-04-23 12:48 | 36.20792 | 117.32421 | 18891 ft | 434 kts | 170° |
| 2026-04-23 12:48 | 36.17827 | 117.33045 | 19730 ft | 437 kts | 170° |
| 2026-04-23 12:48 | 36.14801 | 117.33682 | 20559 ft | 441 kts | 170° |
| 2026-04-23 12:48 | 36.11792 | 117.34315 | 21279 ft | 446 kts | 170° |
| 2026-04-23 12:49 | 36.08712 | 117.34962 | 22063 ft | 449 kts | 170° |
| 2026-04-23 12:49 | 36.05619 | 117.35611 | 22821 ft | 453 kts | 171° |
| 2026-04-23 12:49 | 36.02521 | 117.36261 | 23503 ft | 457 kts | 171° |
| 2026-04-23 12:49 | 35.99386 | 117.37045 | 24134 ft | 462 kts | 165° |
| 2026-04-23 12:50 | 35.96289 | 117.38165 | 24742 ft | 467 kts | 164° |
| 2026-04-23 12:50 | 35.93193 | 117.39329 | 25286 ft | 472 kts | 164° |
| 2026-04-23 12:50 | 35.90014 | 117.40525 | 25904 ft | 476 kts | 164° |
| 2026-04-23 12:50 | 35.86844 | 117.41715 | 26489 ft | 480 kts | 165° |
| 2026-04-23 12:51 | 35.83645 | 117.42913 | 27029 ft | 484 kts | 165° |
| 2026-04-23 12:51 | 35.80411 | 117.44122 | 27597 ft | 488 kts | 165° |
| 2026-04-23 12:51 | 35.77221 | 117.45314 | 28192 ft | 491 kts | 165° |
| 2026-04-23 12:51 | 35.73962 | 117.46530 | 28784 ft | 495 kts | 165° |
| 2026-04-23 12:52 | 35.70632 | 117.47772 | 29411 ft | 497 kts | 166° |
| 2026-04-23 12:52 | 35.67347 | 117.48994 | 30135 ft | 497 kts | 166° |
| 2026-04-23 12:52 | 35.64052 | 117.50221 | 30882 ft | 495 kts | 166° |
| 2026-04-23 12:52 | 35.60749 | 117.51450 | 31637 ft | 491 kts | 166° |
| 2026-04-23 12:53 | 35.57512 | 117.52652 | 32299 ft | 489 kts | 167° |
| 2026-04-23 12:53 | 35.54258 | 117.53858 | 32861 ft | 489 kts | 167° |
| 2026-04-23 12:53 | 35.50938 | 117.55089 | 33371 ft | 489 kts | 167° |
| 2026-04-23 12:53 | 35.47623 | 117.56316 | 33942 ft | 488 kts | 167° |
| 2026-04-23 12:54 | 35.44400 | 117.57509 | 34453 ft | 486 kts | 167° |
| 2026-04-23 12:54 | 35.41151 | 117.58710 | 34880 ft | 484 kts | 167° |
| 2026-04-23 12:54 | 35.37902 | 117.59909 | 35080 ft | 488 kts | 168° |
| 2026-04-23 12:54 | 35.34684 | 117.61096 | 35120 ft | 486 kts | 168° |
| 2026-04-23 12:55 | 35.28205 | 117.63485 | 35133 ft | 482 kts | 168° |
| 2026-04-23 12:55 | 35.21738 | 117.65863 | 35122 ft | 484 kts | 169° |
| 2026-04-23 12:56 | 35.15159 | 117.68275 | 35125 ft | 502 kts | 169° |
| 2026-04-23 12:56 | 35.08450 | 117.70731 | 35123 ft | 517 kts | 168° |
| 2026-04-23 12:57 | 35.01579 | 117.73253 | 35125 ft | 516 kts | 168° |
| 2026-04-23 12:57 | 34.94688 | 117.75779 | 35118 ft | 514 kts | 169° |
| 2026-04-23 12:58 | 34.87843 | 117.78281 | 35116 ft | 514 kts | 169° |
| 2026-04-23 12:58 | 34.81045 | 117.80769 | 35120 ft | 514 kts | 169° |
| 2026-04-23 12:59 | 34.74162 | 117.83253 | 35117 ft | 513 kts | 169° |
| 2026-04-23 12:59 | 34.67292 | 117.85722 | 35124 ft | 515 kts | 169° |
| 2026-04-23 13:00 | 34.60410 | 117.88193 | 35129 ft | 514 kts | 169° |
| 2026-04-23 13:00 | 34.53548 | 117.90653 | 35130 ft | 514 kts | 170° |
| 2026-04-23 13:01 | 34.46671 | 117.93114 | 35127 ft | 514 kts | 170° |
| 2026-04-23 13:01 | 34.39827 | 117.95560 | 35125 ft | 512 kts | 170° |
| 2026-04-23 13:02 | 34.32984 | 117.97999 | 35110 ft | 512 kts | 170° |
| 2026-04-23 13:02 | 34.26166 | 118.00432 | 35115 ft | 513 kts | 170° |
| 2026-04-23 13:03 | 34.19332 | 118.02924 | 35130 ft | 514 kts | 170° |
| 2026-04-23 13:03 | 34.12513 | 118.05409 | 35139 ft | 512 kts | 170° |
| 2026-04-23 13:04 | 34.05652 | 118.07904 | 35140 ft | 511 kts | 170° |
| 2026-04-23 13:04 | 33.98826 | 118.10382 | 35151 ft | 512 kts | 170° |
| 2026-04-23 13:05 | 33.92048 | 118.12852 | 35143 ft | 511 kts | 170° |
| 2026-04-23 13:05 | 33.85207 | 118.15340 | 35386 ft | 512 kts | 170° |
| 2026-04-23 13:06 | 33.78501 | 118.17779 | 35163 ft | 508 kts | 171° |
| 2026-04-23 13:06 | 33.75086 | 118.19023 | 35157 ft | 509 kts | 170° |
| 2026-04-23 13:07 | 33.68404 | 118.21456 | 35158 ft | 509 kts | 171° |
| 2026-04-23 13:07 | 33.61626 | 118.23920 | 35157 ft | 507 kts | 171° |
| 2026-04-23 13:08 | 33.54855 | 118.26377 | 35158 ft | 506 kts | 171° |
| 2026-04-23 13:08 | 33.48129 | 118.28813 | 35156 ft | 507 kts | 171° |
| 2026-04-23 13:09 | 33.41413 | 118.31242 | 35153 ft | 505 kts | 171° |
| 2026-04-23 13:09 | 33.34655 | 118.33682 | 35156 ft | 505 kts | 171° |
| 2026-04-23 13:10 | 33.27956 | 118.36096 | 35157 ft | 507 kts | 171° |
| 2026-04-23 13:10 | 33.21189 | 118.38532 | 35158 ft | 505 kts | 172° |
| 2026-04-23 13:11 | 33.14462 | 118.40956 | 35156 ft | 504 kts | 172° |
| 2026-04-23 13:11 | 33.07731 | 118.43378 | 35159 ft | 504 kts | 172° |
| 2026-04-23 13:12 | 33.00955 | 118.45812 | 35158 ft | 504 kts | 172° |
| 2026-04-23 13:12 | 32.94205 | 118.48235 | 35159 ft | 502 kts | 172° |
| 2026-04-23 13:13 | 32.87508 | 118.50633 | 35165 ft | 502 kts | 172° |
| 2026-04-23 13:13 | 32.80822 | 118.53023 | 35166 ft | 500 kts | 172° |
| 2026-04-23 13:14 | 32.74389 | 118.55318 | 35167 ft | 502 kts | 172° |
| 2026-04-23 13:14 | 32.67805 | 118.57665 | 35167 ft | 502 kts | 172° |
| 2026-04-23 13:15 | 32.60983 | 118.60012 | 35169 ft | 502 kts | 173° |
| 2026-04-23 13:15 | 32.54265 | 118.62289 | 35167 ft | 499 kts | 173° |
| 2026-04-23 13:16 | 32.47564 | 118.64558 | 35169 ft | 499 kts | 173° |
| 2026-04-23 13:16 | 32.40860 | 118.66827 | 35151 ft | 498 kts | 174° |
| 2026-04-23 13:17 | 32.34183 | 118.69083 | 35149 ft | 500 kts | 174° |
| 2026-04-23 13:17 | 32.27509 | 118.71336 | 35151 ft | 500 kts | 174° |
| 2026-04-23 13:18 | 32.20819 | 118.73579 | 35150 ft | 500 kts | 174° |
| 2026-04-23 13:18 | 32.14078 | 118.75835 | 35151 ft | 499 kts | 174° |
| 2026-04-23 13:19 | 32.07418 | 118.78062 | 35152 ft | 499 kts | 174° |
| 2026-04-23 13:19 | 32.00733 | 118.80294 | 35149 ft | 498 kts | 174° |
| 2026-04-23 13:20 | 31.94028 | 118.82477 | 35145 ft | 498 kts | 175° |
| 2026-04-23 13:20 | 31.87355 | 118.84602 | 35146 ft | 495 kts | 175° |
| 2026-04-23 13:21 | 31.80762 | 118.86783 | 35158 ft | 482 kts | 173° |
| 2026-04-23 13:21 | 31.74751 | 118.90116 | 35146 ft | 477 kts | 156° |
| 2026-04-23 13:22 | 31.69600 | 118.95220 | 34501 ft | 493 kts | 148° |
| 2026-04-23 13:22 | 31.67032 | 118.97623 | 33638 ft | 496 kts | 155° |
| 2026-04-23 13:22 | 31.64137 | 118.99935 | 32912 ft | 506 kts | 154° |
| 2026-04-23 13:22 | 31.61331 | 119.02371 | 32783 ft | 505 kts | 153° |
| 2026-04-23 13:23 | 31.58516 | 119.04864 | 32779 ft | 500 kts | 153° |
| 2026-04-23 13:23 | 31.53026 | 119.09716 | 32261 ft | 491 kts | 153° |
| 2026-04-23 13:23 | 31.50266 | 119.12142 | 31241 ft | 496 kts | 153° |
| 2026-04-23 13:24 | 31.47521 | 119.14552 | 30506 ft | 495 kts | 153° |
| 2026-04-23 13:24 | 31.44762 | 119.16974 | 29996 ft | 488 kts | 153° |
| 2026-04-23 13:24 | 31.42061 | 119.19339 | 29467 ft | 483 kts | 152° |
| 2026-04-23 13:24 | 31.39381 | 119.21682 | 28907 ft | 479 kts | 152° |
| 2026-04-23 13:25 | 31.36742 | 119.23985 | 28341 ft | 475 kts | 152° |
| 2026-04-23 13:25 | 31.34091 | 119.26297 | 27768 ft | 471 kts | 152° |
| 2026-04-23 13:25 | 31.31465 | 119.28584 | 27194 ft | 467 kts | 152° |
| 2026-04-23 13:25 | 31.28876 | 119.30838 | 26617 ft | 464 kts | 152° |
| 2026-04-23 13:26 | 31.26308 | 119.33072 | 26038 ft | 460 kts | 151° |
| 2026-04-23 13:26 | 31.23769 | 119.35278 | 25445 ft | 456 kts | 151° |
| 2026-04-23 13:26 | 31.21195 | 119.37514 | 24841 ft | 453 kts | 151° |
| 2026-04-23 13:26 | 31.18678 | 119.39700 | 24265 ft | 449 kts | 151° |
| 2026-04-23 13:27 | 31.16207 | 119.41861 | 23698 ft | 446 kts | 150° |
| 2026-04-23 13:27 | 31.13737 | 119.44022 | 23100 ft | 444 kts | 150° |
| 2026-04-23 13:27 | 31.11280 | 119.46169 | 22515 ft | 441 kts | 150° |
| 2026-04-23 13:27 | 31.08845 | 119.48296 | 21917 ft | 438 kts | 150° |
| 2026-04-23 13:28 | 31.06395 | 119.50434 | 21320 ft | 436 kts | 149° |
| 2026-04-23 13:28 | 31.03980 | 119.52539 | 20731 ft | 433 kts | 149° |
| 2026-04-23 13:28 | 31.01549 | 119.54658 | 20118 ft | 431 kts | 148° |
| 2026-04-23 13:28 | 30.99140 | 119.56755 | 19506 ft | 429 kts | 148° |
| 2026-04-23 13:29 | 30.96782 | 119.58808 | 18917 ft | 426 kts | 148° |
| 2026-04-23 13:29 | 30.94389 | 119.60889 | 18303 ft | 424 kts | 148° |
| 2026-04-23 13:29 | 30.92043 | 119.62927 | 17708 ft | 422 kts | 147° |
| 2026-04-23 13:29 | 30.89695 | 119.64966 | 17111 ft | 420 kts | 147° |
| 2026-04-23 13:30 | 30.87343 | 119.67008 | 16484 ft | 418 kts | 147° |
| 2026-04-23 13:30 | 30.85019 | 119.69024 | 15867 ft | 415 kts | 146° |
| 2026-04-23 13:30 | 30.82912 | 119.70851 | 15318 ft | 413 kts | 146° |
| 2026-04-23 13:30 | 30.80707 | 119.72762 | 14721 ft | 410 kts | 145° |
| 2026-04-23 13:31 | 30.78548 | 119.74631 | 14165 ft | 406 kts | 145° |
| 2026-04-23 13:31 | 30.76277 | 119.76597 | 13561 ft | 403 kts | 144° |
| 2026-04-23 13:31 | 30.74056 | 119.78518 | 12959 ft | 400 kts | 144° |
| 2026-04-23 13:31 | 30.72175 | 119.80145 | 12446 ft | 397 kts | 144° |
| 2026-04-23 13:32 | 30.69968 | 119.82093 | 11825 ft | 394 kts | 142° |
| 2026-04-23 13:32 | 30.67829 | 119.84051 | 11228 ft | 390 kts | 142° |
| 2026-04-23 13:32 | 30.65706 | 119.85995 | 10681 ft | 385 kts | 142° |
| 2026-04-23 13:32 | 30.64148 | 119.87338 | 10549 ft | 373 kts | 147° |
| 2026-04-23 13:33 | 30.61931 | 119.88829 | 10459 ft | 355 kts | 151° |
| 2026-04-23 13:33 | 30.60021 | 119.90052 | 10360 ft | 342 kts | 151° |
| 2026-04-23 13:33 | 30.57956 | 119.91368 | 10225 ft | 329 kts | 151° |
| 2026-04-23 13:33 | 30.55977 | 119.92625 | 10088 ft | 317 kts | 151° |
| 2026-04-23 13:34 | 30.54051 | 119.93848 | 9927 ft | 307 kts | 151° |
| 2026-04-23 13:34 | 30.52189 | 119.95029 | 9533 ft | 306 kts | 151° |
| 2026-04-23 13:34 | 30.50340 | 119.96201 | 9379 ft | 296 kts | 151° |
| 2026-04-23 13:34 | 30.48520 | 119.97353 | 8818 ft | 298 kts | 150° |
| 2026-04-23 13:35 | 30.46729 | 119.98488 | 8407 ft | 290 kts | 150° |
| 2026-04-23 13:35 | 30.44967 | 119.99602 | 8095 ft | 287 kts | 149° |
| 2026-04-23 13:35 | 30.43259 | 120.00683 | 7767 ft | 286 kts | 149° |
| 2026-04-23 13:35 | 30.41532 | 120.01777 | 7684 ft | 276 kts | 149° |
| 2026-04-23 13:36 | 30.39885 | 120.02820 | 7682 ft | 264 kts | 149° |
| 2026-04-23 13:36 | 30.38314 | 120.03813 | 7677 ft | 251 kts | 149° |
| 2026-04-23 13:36 | 30.36804 | 120.04769 | 7659 ft | 239 kts | 149° |
| 2026-04-23 13:36 | 30.35406 | 120.05653 | 7542 ft | 225 kts | 149° |
| 2026-04-23 13:37 | 30.34066 | 120.06499 | 7431 ft | 212 kts | 148° |
| 2026-04-23 13:37 | 30.32789 | 120.07310 | 7388 ft | 209 kts | 149° |
| 2026-04-23 13:37 | 30.31511 | 120.08118 | 7325 ft | 203 kts | 149° |
| 2026-04-23 13:37 | 30.30297 | 120.08884 | 7290 ft | 198 kts | 149° |
| 2026-04-23 13:38 | 30.29078 | 120.09653 | 7244 ft | 195 kts | 149° |
| 2026-04-23 13:38 | 30.27893 | 120.10403 | 7175 ft | 195 kts | 148° |
| 2026-04-23 13:38 | 30.26703 | 120.11153 | 7125 ft | 195 kts | 148° |
| 2026-04-23 13:38 | 30.25508 | 120.11908 | 7075 ft | 195 kts | 149° |
| 2026-04-23 13:39 | 30.24307 | 120.12666 | 7009 ft | 195 kts | 148° |
| 2026-04-23 13:39 | 30.23071 | 120.13304 | 6957 ft | 196 kts | 163° |
| 2026-04-23 13:39 | 30.21715 | 120.13443 | 6909 ft | 198 kts | 184° |
| 2026-04-23 13:39 | 30.20375 | 120.13023 | 6848 ft | 199 kts | 205° |
| 2026-04-23 13:40 | 30.19242 | 120.12093 | 6653 ft | 200 kts | 227° |
| 2026-04-23 13:40 | 30.18462 | 120.10772 | 6455 ft | 199 kts | 245° |
| 2026-04-23 13:40 | 30.17868 | 120.09337 | 6320 ft | 200 kts | 245° |
| 2026-04-23 13:40 | 30.17199 | 120.07925 | 6106 ft | 199 kts | 231° |
| 2026-04-23 13:41 | 30.16141 | 120.06937 | 5951 ft | 198 kts | 203° |
| 2026-04-23 13:41 | 30.14802 | 120.06612 | 5775 ft | 195 kts | 174° |
| 2026-04-23 13:41 | 30.13510 | 120.07014 | 5683 ft | 193 kts | 151° |
| 2026-04-23 13:41 | 30.12312 | 120.07719 | 5563 ft | 191 kts | 147° |
| 2026-04-23 13:42 | 30.11326 | 120.08701 | 5440 ft | 187 kts | 121° |
| 2026-04-23 13:42 | 30.10825 | 120.10066 | 5320 ft | 183 kts | 96° |
| 2026-04-23 13:42 | 30.10884 | 120.11510 | 5183 ft | 179 kts | 71° |
| 2026-04-23 13:42 | 30.11367 | 120.12812 | 5048 ft | 176 kts | 63° |
| 2026-04-23 13:43 | 30.11908 | 120.14069 | 4946 ft | 173 kts | 62° |
| 2026-04-23 13:43 | 30.12465 | 120.15321 | 4845 ft | 175 kts | 61° |
| 2026-04-23 13:43 | 30.13016 | 120.16557 | 4629 ft | 173 kts | 61° |
| 2026-04-23 13:43 | 30.13562 | 120.17777 | 4387 ft | 171 kts | 62° |
| 2026-04-23 13:44 | 30.14104 | 120.18993 | 4197 ft | 170 kts | 62° |
| 2026-04-23 13:44 | 30.14645 | 120.20202 | 3952 ft | 170 kts | 62° |
| 2026-04-23 13:44 | 30.15189 | 120.21424 | 3731 ft | 168 kts | 61° |
| 2026-04-23 13:44 | 30.15725 | 120.22624 | 3549 ft | 172 kts | 61° |
| 2026-04-23 13:45 | 30.16265 | 120.23839 | 3366 ft | 169 kts | 61° |
| 2026-04-23 13:45 | 30.16797 | 120.25034 | 3135 ft | 168 kts | 61° |
| 2026-04-23 13:45 | 30.17335 | 120.26241 | 2901 ft | 167 kts | 61° |
| 2026-04-23 13:45 | 30.17864 | 120.27428 | 2672 ft | 165 kts | 61° |
| 2026-04-23 13:46 | 30.18391 | 120.28614 | 2441 ft | 165 kts | 61° |
| 2026-04-23 13:46 | 30.18888 | 120.29733 | 2226 ft | 150 kts | 60° |
| 2026-04-23 13:46 | 30.19363 | 120.30797 | 2026 ft | 147 kts | 61° |
| 2026-04-23 13:46 | 30.19828 | 120.31844 | 1823 ft | 145 kts | 61° |
| 2026-04-23 13:47 | 30.20285 | 120.32872 | 1616 ft | 145 kts | 60° |
| 2026-04-23 13:47 | 30.20746 | 120.33910 | 1412 ft | 145 kts | 60° |
| 2026-04-23 13:47 | 30.21195 | 120.34920 | 1205 ft | 145 kts | 60° |
| 2026-04-23 13:47 | 30.21658 | 120.35955 | 997 ft | 146 kts | 61° |
| 2026-04-23 13:48 | 30.22118 | 120.37011 | 794 ft | 147 kts | 60° |
| 2026-04-23 13:48 | 30.22590 | 120.38045 | 586 ft | 146 kts | 61° |
| 2026-04-23 13:48 | 30.23051 | 120.39086 | 385 ft | 148 kts | 61° |
| 2026-04-23 13:48 | 30.23511 | 120.40130 | 200 ft | 144 kts | 62° |
| 2026-04-23 13:49 | 30.23971 | 120.41187 | 36 ft | 143 kts | 62° |
| 2026-04-23 13:49 | 30.24370 | 120.42069 | 35 ft | 102 kts | 63° |
| 2026-04-23 13:49 | 30.24625 | 120.42645 | 35 ft | 58 kts | 63° |
| 2026-04-23 13:49 | 30.24716 | 120.42915 | 35 ft | 30 kts | 82° |
| 2026-04-23 13:50 | 30.24723 | 120.43059 | 35 ft | 7 kts | 89° |
| 2026-04-23 13:50 | 30.24723 | 120.43122 | 35 ft | 7 kts | 90° |
| 2026-04-23 13:50 | 30.24722 | 120.43188 | 35 ft | 8 kts | 95° |
| 2026-04-23 13:50 | 30.24689 | 120.43250 | 35 ft | 9 kts | 150° |
| 2026-04-23 13:51 | 30.24623 | 120.43291 | 35 ft | 11 kts | 153° |
| 2026-04-23 13:51 | 30.24542 | 120.43315 | 35 ft | 13 kts | 195° |
| 2026-04-23 13:51 | 30.24478 | 120.43283 | 35 ft | 5 kts | 205° |
| 2026-04-23 13:51 | 30.24438 | 120.43261 | 35 ft | 6 kts | 205° |
| 2026-04-23 13:52 | 30.24412 | 120.43246 | 35 ft | 0 kts | 205° |
| 2026-04-23 13:52 | 30.24410 | 120.43246 | 35 ft | 0 kts | 205° |